WetterOnline ( https://www.wetteronline.de )

Wetter aktuell Grävenwiesbach

Aktuelles Wetter: Gießen (195m)

6-stündlich | Neueste Meldungen
Ortszeit Temperatur Wetter
Sa, 18.09. 20:00 15.3° C wolkenlos
Sa, 18.09. 14:00 19.0° C leicht bewölkt
Sa, 18.09. 8:00 10.4° C Nebel
Sa, 18.09. 2:00 11.5° C wolkig
Fr, 17.09. 20:00 16.1° C leicht bewölkt
Fr, 17.09. 14:00 17.0° C bewölkt
Fr, 17.09. 8:00 10.3° C Nebel
Fr, 17.09. 2:00 10.5° C fast wolkenlos
Ortszeit Temperatur Wetter
Sa, 18.09. 22:00 13.3° C wolkenlos
Sa, 18.09. 21:30 13.9° C wolkig
Sa, 18.09. 21:20 13.9° C wolkig
Sa, 18.09. 21:10 14.3° C wolkig
Sa, 18.09. 21:00 14.8° C leicht bewölkt
Sa, 18.09. 20:50 14.8° C leicht bewölkt
Sa, 18.09. 20:30 14.9° C wolkenlos
Sa, 18.09. 20:00 15.3° C wolkenlos
Sa, 18.09. 19:30 16.3° C wolkenlos
Sa, 18.09. 19:00 17.3° C fast wolkenlos
Sa, 18.09. 18:30 18.1° C leicht bewölkt
Ortszeit Relative Feuchte Sichtweite
Sa, 18.09. 20:00 78% 45 km
Sa, 18.09. 14:00 64% 23 km
Sa, 18.09. 8:00 100% 100 m
Sa, 18.09. 2:00 99% 4.5 km
Fr, 17.09. 20:00 80% 35 km
Fr, 17.09. 14:00 76% 20 km
Fr, 17.09. 8:00 99% 0.5 km
Fr, 17.09. 2:00 94% 19 km
Ortszeit Relative Feuchte Sichtweite
Sa, 18.09. 22:00 83% 50 km
Sa, 18.09. 21:30 81% 40 km
Sa, 18.09. 21:20 81% -
Sa, 18.09. 21:10 78% -
Sa, 18.09. 21:00 77% 26 km
Sa, 18.09. 20:50 77% -
Sa, 18.09. 20:30 77% 30 km
Sa, 18.09. 20:00 78% 45 km
Sa, 18.09. 19:30 74% 40 km
Sa, 18.09. 19:00 70% 40 km
Sa, 18.09. 18:30 67% 30 km
Ortszeit Niederschlagsmenge Niederschlagsart
Sa, 18.09. 20:00 0.1 l/m2 in 12 Std. -
Sa, 18.09. 14:00 0.1 l/m2 in 6 Std. -
Sa, 18.09. 8:00 0.0 l/m2 in 12 Std. -
Sa, 18.09. 2:00 0.0 l/m2 in 6 Std. -
Fr, 17.09. 20:00 0.0 l/m2 in 12 Std. -
Fr, 17.09. 14:00 0.0 l/m2 in 6 Std. -
Fr, 17.09. 8:00 0.0 l/m2 in 12 Std. -
Fr, 17.09. 2:00 0.0 l/m2 in 6 Std. -
Ortszeit Niederschlagsmenge Niederschlagsart
Sa, 18.09. 22:00 keine Meldung -
Sa, 18.09. 21:30 0.0 l/m2 in 1 Std. -
Sa, 18.09. 21:20 keine Meldung -
Sa, 18.09. 21:10 keine Meldung -
Sa, 18.09. 21:00 0.0 l/m2 in 1 Std. -
Sa, 18.09. 20:50 keine Meldung -
Sa, 18.09. 20:30 0.0 l/m2 in 1 Std. -
Sa, 18.09. 20:00 0.0 l/m2 in 1 Std. -
Sa, 18.09. 19:30 0.0 l/m2 in 1 Std. -
Sa, 18.09. 19:00 0.0 l/m2 in 1 Std. -
Sa, 18.09. 18:30 0.0 l/m2 in 1 Std. -
Ortszeit Stärke Spitze Richtung
km/h Bft. km/h Grad Sektor
Sa, 18.09. 20:00 11 2 22 20° N
Sa, 18.09. 14:00 7 2 18 50° NO
Sa, 18.09. 8:00 4 1 7 30° NO
Sa, 18.09. 2:00 4 1 11 200° S
Fr, 17.09. 20:00 4 1 18 260° W
Fr, 17.09. 14:00 9 2 19 220° SW
Fr, 17.09. 8:00 6 1 11 160° S
Fr, 17.09. 2:00 7 2 18 220° SW
Ortszeit Stärke Spitze Richtung
km/h Bft. km/h Grad Sektor
Sa, 18.09. 22:00 7 2 18 20° N
Sa, 18.09. 21:30 11 2 18 20° N
Sa, 18.09. 21:20 11 2 - 20° N
Sa, 18.09. 21:10 11 2 - 20° N
Sa, 18.09. 21:00 13 3 17 30° NO
Sa, 18.09. 20:50 13 3 - 30° NO
Sa, 18.09. 20:30 13 3 17 30° NO
Sa, 18.09. 20:00 11 2 18 20° N
Sa, 18.09. 19:30 7 2 14 40° NO
Sa, 18.09. 19:00 11 2 18 40° NO
Sa, 18.09. 18:30 11 2 17 40° NO
Ortszeit Untergrenze Bedeckung Gattung
total tief tief mittel hoch
Sa, 18.09. 20:00 - 0/8 0/8 - - -
Sa, 18.09. 14:00 1020 m 5/8 3/8 - - -
Sa, 18.09. 8:00 <30 m 8/8 0/8 - - -
Sa, 18.09. 2:00 2400 m 5/8 5/8 - - -
Fr, 17.09. 20:00 2700 m 3/8 3/8 - - -
Fr, 17.09. 14:00 1800 m 8/8 6/8 - - -
Fr, 17.09. 8:00 <30 m 8/8 0/8 - - -
Fr, 17.09. 2:00 8100 m 1/8 0/8 - - -
Ortszeit Bedeckungsgrad in Achtel und Wolkenuntergrenze
Sa, 18.09. 22:00 keine Wolken
Sa, 18.09. 21:30 7(10500m)
Sa, 18.09. 21:20 7(10500m)
Sa, 18.09. 21:10 7(10500m)
Sa, 18.09. 21:00 5(10500m)
Sa, 18.09. 20:50 5(10500m)
Sa, 18.09. 20:30 keine Wolken
Sa, 18.09. 20:00 keine Wolken
Sa, 18.09. 19:30 keine Wolken
Sa, 18.09. 19:00 1(1410m)
Sa, 18.09. 18:30 3(1470m) 5(10500m)
Ortszeit Luftdruck NN (hPa) Tendenz (hPa in 3 Std.)
Sa, 18.09. 20:00 1016 0,0
Sa, 18.09. 14:00 1017 - 0,8
Sa, 18.09. 8:00 1017 + 0,5
Sa, 18.09. 2:00 1017 + 0,2
Fr, 17.09. 20:00 1015 - 0,1
Fr, 17.09. 14:00 1016 - 0,9
Fr, 17.09. 8:00 1018 - 0,1
Fr, 17.09. 2:00 1018 + 0,3
Ortszeit Luftdruck NN (hPa) Tendenz (hPa in 3 Std.)
Sa, 18.09. 22:00 1017 + 1,2
Sa, 18.09. 21:30 1016 + 0,7
Sa, 18.09. 21:20 1016 keine Meldung
Sa, 18.09. 21:10 1016 keine Meldung
Sa, 18.09. 21:00 1016 + 0,6
Sa, 18.09. 20:50 1016 keine Meldung
Sa, 18.09. 20:30 1016 + 0,2
Sa, 18.09. 20:00 1016 0,0
Sa, 18.09. 19:30 1016 0,0
Sa, 18.09. 19:00 1015 - 0,3
Sa, 18.09. 18:30 1015 - 0,5
Ortszeit Schneehöhe (cm)
Sa, 18.09. 20:00 -
Sa, 18.09. 14:00 -
Sa, 18.09. 8:00 -
Sa, 18.09. 2:00 -
Fr, 17.09. 20:00 -
Fr, 17.09. 14:00 -
Fr, 17.09. 8:00 -
Fr, 17.09. 2:00 -
Ortszeit Schneehöhe (cm)
Sa, 18.09. 22:00 -
Sa, 18.09. 21:30 -
Sa, 18.09. 21:20 -
Sa, 18.09. 21:10 -
Sa, 18.09. 21:00 -
Sa, 18.09. 20:50 -
Sa, 18.09. 20:30 -
Sa, 18.09. 20:00 -
Sa, 18.09. 19:30 -
Sa, 18.09. 19:00 -
Sa, 18.09. 18:30 -
Link zu dieser Seite / Seite empfehlen

Das Wetter in ...